<?xml version="1.0" encoding="UTF-8"?>
<gpx version="1.0" creator="Trackator" xmlns:xsi="http://www.w3.org/2001/XMLSchema-instance" xmlns="http://www.topografix.com/GPX/1/0" xmlns:topografix="http://www.topografix.com/GPX/Private/TopoGrafix/0/1" xsi:schemaLocation="http://www.topografix.com/GPX/1/0 http://www.topografix.com/GPX/1/0/gpx.xsd http://www.topografix.com/GPX/Private/TopoGrafix/0/1 http://www.topografix.com/GPX/Private/TopoGrafix/0/1/topografix.xsd">
<metadata>
<link href="http://www.trackator.com">
<text>Trackator</text>
</link>
</metadata>
<time>2015-08-22T10:54:07Z</time>
<trk>
<name>Track: </name>
<desc>Hiking</desc>
<trkseg>
<trkpt lat="53.3479013" lon="18.4462972">
<ele>103</ele>
<time>2015-08-22T10:54:07Z</time>
</trkpt>
<trkpt lat="53.3478568" lon="18.4462805">
<ele>105</ele>
<time>2015-08-22T10:54:09Z</time>
</trkpt>
<trkpt lat="53.3478568" lon="18.4462805">
<ele>105</ele>
<time>2015-08-22T10:54:11Z</time>
</trkpt>
<trkpt lat="53.3478568" lon="18.4462805">
<ele>105</ele>
<time>2015-08-22T10:54:13Z</time>
</trkpt>
<trkpt lat="53.3478568" lon="18.4462805">
<ele>105</ele>
<time>2015-08-22T10:54:15Z</time>
</trkpt>
<trkpt lat="53.3478568" lon="18.4462805">
<ele>105</ele>
<time>2015-08-22T10:54:17Z</time>
</trkpt>
<trkpt lat="53.3478568" lon="18.4462805">
<ele>105</ele>
<time>2015-08-22T10:54:19Z</time>
</trkpt>
<trkpt lat="53.3478568" lon="18.4462805">
<ele>105</ele>
<time>2015-08-22T10:54:21Z</time>
</trkpt>
<trkpt lat="53.3478568" lon="18.4462805">
<ele>105</ele>
<time>2015-08-22T10:54:23Z</time>
</trkpt>
<trkpt lat="53.3478568" lon="18.4462805">
<ele>105</ele>
<time>2015-08-22T10:54:25Z</time>
</trkpt>
<trkpt lat="53.3478568" lon="18.4462805">
<ele>105</ele>
<time>2015-08-22T10:54:27Z</time>
</trkpt>
<trkpt lat="53.3478568" lon="18.4462805">
<ele>105</ele>
<time>2015-08-22T10:54:29Z</time>
</trkpt>
<trkpt lat="53.3478568" lon="18.4462805">
<ele>105</ele>
<time>2015-08-22T10:54:31Z</time>
</trkpt>
<trkpt lat="53.3478568" lon="18.4462805">
<ele>105</ele>
<time>2015-08-22T10:54:33Z</time>
</trkpt>
<trkpt lat="53.3478568" lon="18.4462805">
<ele>105</ele>
<time>2015-08-22T10:54:35Z</time>
</trkpt>
<trkpt lat="53.3478568" lon="18.4462805">
<ele>105</ele>
<time>2015-08-22T10:54:37Z</time>
</trkpt>
<trkpt lat="53.3478568" lon="18.4462805">
<ele>105</ele>
<time>2015-08-22T10:54:39Z</time>
</trkpt>
<trkpt lat="53.3478568" lon="18.4462805">
<ele>105</ele>
<time>2015-08-22T10:54:41Z</time>
</trkpt>
<trkpt lat="53.3478568" lon="18.4462805">
<ele>105</ele>
<time>2015-08-22T10:54:43Z</time>
</trkpt>
<trkpt lat="53.3478568" lon="18.4462805">
<ele>105</ele>
<time>2015-08-22T10:54:45Z</time>
</trkpt>
<trkpt lat="53.3478568" lon="18.4462805">
<ele>105</ele>
<time>2015-08-22T10:54:47Z</time>
</trkpt>
<trkpt lat="53.3478568" lon="18.4462805">
<ele>105</ele>
<time>2015-08-22T10:54:49Z</time>
</trkpt>
<trkpt lat="53.3478568" lon="18.4462805">
<ele>105</ele>
<time>2015-08-22T10:54:51Z</time>
</trkpt>
<trkpt lat="53.3478568" lon="18.4462805">
<ele>105</ele>
<time>2015-08-22T10:54:53Z</time>
</trkpt>
<trkpt lat="53.3478568" lon="18.4462805">
<ele>105</ele>
<time>2015-08-22T10:54:55Z</time>
</trkpt>
<trkpt lat="53.3478568" lon="18.4462805">
<ele>105</ele>
<time>2015-08-22T10:54:57Z</time>
</trkpt>
<trkpt lat="53.3478568" lon="18.4462805">
<ele>105</ele>
<time>2015-08-22T10:54:59Z</time>
</trkpt>
<trkpt lat="53.3478568" lon="18.4462805">
<ele>105</ele>
<time>2015-08-22T10:55:01Z</time>
</trkpt>
<trkpt lat="53.3478568" lon="18.4462805">
<ele>105</ele>
<time>2015-08-22T10:55:03Z</time>
</trkpt>
<trkpt lat="53.3478568" lon="18.4462805">
<ele>105</ele>
<time>2015-08-22T10:55:05Z</time>
</trkpt>
<trkpt lat="53.3478568" lon="18.4462805">
<ele>105</ele>
<time>2015-08-22T10:55:07Z</time>
</trkpt>
<trkpt lat="53.3478568" lon="18.4462805">
<ele>105</ele>
<time>2015-08-22T10:55:09Z</time>
</trkpt>
<trkpt lat="53.3478568" lon="18.4462805">
<ele>105</ele>
<time>2015-08-22T10:55:11Z</time>
</trkpt>
<trkpt lat="53.3478568" lon="18.4462805">
<ele>105</ele>
<time>2015-08-22T10:55:13Z</time>
</trkpt>
<trkpt lat="53.3478568" lon="18.4462805">
<ele>105</ele>
<time>2015-08-22T10:55:15Z</time>
</trkpt>
<trkpt lat="53.3478568" lon="18.4462805">
<ele>105</ele>
<time>2015-08-22T10:55:17Z</time>
</trkpt>
<trkpt lat="53.3478568" lon="18.4462805">
<ele>105</ele>
<time>2015-08-22T10:55:19Z</time>
</trkpt>
<trkpt lat="53.3478568" lon="18.4462805">
<ele>105</ele>
<time>2015-08-22T10:55:21Z</time>
</trkpt>
<trkpt lat="53.3478568" lon="18.4462805">
<ele>105</ele>
<time>2015-08-22T10:55:23Z</time>
</trkpt>
<trkpt lat="53.3478568" lon="18.4462805">
<ele>105</ele>
<time>2015-08-22T10:55:25Z</time>
</trkpt>
<trkpt lat="53.3478568" lon="18.4462805">
<ele>105</ele>
<time>2015-08-22T10:55:27Z</time>
</trkpt>
<trkpt lat="53.3478568" lon="18.4462805">
<ele>105</ele>
<time>2015-08-22T10:55:29Z</time>
</trkpt>
<trkpt lat="53.3478568" lon="18.4462805">
<ele>105</ele>
<time>2015-08-22T10:55:31Z</time>
</trkpt>
<trkpt lat="53.3478568" lon="18.4462805">
<ele>105</ele>
<time>2015-08-22T10:55:33Z</time>
</trkpt>
<trkpt lat="53.3478568" lon="18.4462805">
<ele>105</ele>
<time>2015-08-22T10:55:35Z</time>
</trkpt>
<trkpt lat="53.3478568" lon="18.4462805">
<ele>105</ele>
<time>2015-08-22T10:55:37Z</time>
</trkpt>
<trkpt lat="53.3478568" lon="18.4462805">
<ele>105</ele>
<time>2015-08-22T10:55:39Z</time>
</trkpt>
<trkpt lat="53.3478568" lon="18.4462805">
<ele>105</ele>
<time>2015-08-22T10:55:41Z</time>
</trkpt>
<trkpt lat="53.3478568" lon="18.4462805">
<ele>105</ele>
<time>2015-08-22T10:55:43Z</time>
</trkpt>
<trkpt lat="53.3478568" lon="18.4462805">
<ele>105</ele>
<time>2015-08-22T10:55:45Z</time>
</trkpt>
<trkpt lat="53.3478568" lon="18.4462805">
<ele>105</ele>
<time>2015-08-22T10:55:47Z</time>
</trkpt>
<trkpt lat="53.3478568" lon="18.4462805">
<ele>105</ele>
<time>2015-08-22T10:55:49Z</time>
</trkpt>
<trkpt lat="53.3478568" lon="18.4462805">
<ele>105</ele>
<time>2015-08-22T10:55:51Z</time>
</trkpt>
<trkpt lat="53.3478568" lon="18.4462805">
<ele>105</ele>
<time>2015-08-22T10:55:53Z</time>
</trkpt>
<trkpt lat="53.3478568" lon="18.4462805">
<ele>105</ele>
<time>2015-08-22T10:55:55Z</time>
</trkpt>
<trkpt lat="53.3478568" lon="18.4462805">
<ele>105</ele>
<time>2015-08-22T10:55:57Z</time>
</trkpt>
<trkpt lat="53.3478568" lon="18.4462805">
<ele>105</ele>
<time>2015-08-22T10:55:59Z</time>
</trkpt>
<trkpt lat="53.3478568" lon="18.4462805">
<ele>105</ele>
<time>2015-08-22T10:56:01Z</time>
</trkpt>
<trkpt lat="53.3478568" lon="18.4462805">
<ele>105</ele>
<time>2015-08-22T10:56:03Z</time>
</trkpt>
<trkpt lat="53.3478568" lon="18.4462805">
<ele>105</ele>
<time>2015-08-22T10:56:05Z</time>
</trkpt>
<trkpt lat="53.3478568" lon="18.4462805">
<ele>105</ele>
<time>2015-08-22T10:56:07Z</time>
</trkpt>
<trkpt lat="53.3478568" lon="18.4462805">
<ele>105</ele>
<time>2015-08-22T10:56:09Z</time>
</trkpt>
<trkpt lat="53.3478568" lon="18.4462805">
<ele>105</ele>
<time>2015-08-22T10:56:11Z</time>
</trkpt>
<trkpt lat="53.3478568" lon="18.4462805">
<ele>105</ele>
<time>2015-08-22T10:56:13Z</time>
</trkpt>
<trkpt lat="53.3478568" lon="18.4462805">
<ele>105</ele>
<time>2015-08-22T10:56:15Z</time>
</trkpt>
<trkpt lat="53.3478568" lon="18.4462805">
<ele>105</ele>
<time>2015-08-22T10:56:17Z</time>
</trkpt>
<trkpt lat="53.3478568" lon="18.4462805">
<ele>105</ele>
<time>2015-08-22T10:56:19Z</time>
</trkpt>
<trkpt lat="53.3478568" lon="18.4462805">
<ele>105</ele>
<time>2015-08-22T10:56:21Z</time>
</trkpt>
<trkpt lat="53.3478568" lon="18.4462805">
<ele>105</ele>
<time>2015-08-22T10:56:23Z</time>
</trkpt>
<trkpt lat="53.3478568" lon="18.4462805">
<ele>105</ele>
<time>2015-08-22T10:56:25Z</time>
</trkpt>
<trkpt lat="53.3478568" lon="18.4462805">
<ele>105</ele>
<time>2015-08-22T10:56:27Z</time>
</trkpt>
<trkpt lat="53.3478568" lon="18.4462805">
<ele>105</ele>
<time>2015-08-22T10:56:29Z</time>
</trkpt>
<trkpt lat="53.3478568" lon="18.4462805">
<ele>105</ele>
<time>2015-08-22T10:56:31Z</time>
</trkpt>
<trkpt lat="53.3478568" lon="18.4462805">
<ele>105</ele>
<time>2015-08-22T10:56:33Z</time>
</trkpt>
<trkpt lat="" lon="">
<ele></ele>
<time>2015-08-22TZ</time>
</trkpt>
</trkseg>
</trk>
<wpt lat="" lon="">
	<name></name>
	<desc></desc>
	<cmt></cmt>
	<photoid></photoid>
	<type></type>
</wpt>
</gpx>
